sensor_id;sensor_type;location;lat;lon;timestamp;P1;durP1;ratioP1;P2;durP2;ratioP2
2225;SDS011;1119;48.288;8.726;2023-09-19T00:00:22;20.10;;;4.07;;
2225;SDS011;1119;48.288;8.726;2023-09-19T00:02:52;20.20;;;4.27;;
2225;SDS011;1119;48.288;8.726;2023-09-19T00:05:24;20.20;;;4.10;;
2225;SDS011;1119;48.288;8.726;2023-09-19T00:07:53;20.17;;;3.70;;
2225;SDS011;1119;48.288;8.726;2023-09-19T00:10:23;20.23;;;3.90;;
2225;SDS011;1119;48.288;8.726;2023-09-19T00:12:53;20.23;;;3.83;;
2225;SDS011;1119;48.288;8.726;2023-09-19T00:15:21;20.03;;;3.83;;
2225;SDS011;1119;48.288;8.726;2023-09-19T00:17:49;20.10;;;3.93;;
2225;SDS011;1119;48.288;8.726;2023-09-19T00:20:20;20.17;;;3.70;;
2225;SDS011;1119;48.288;8.726;2023-09-19T00:22:49;20.30;;;3.90;;
2225;SDS011;1119;48.288;8.726;2023-09-19T00:25:17;20.20;;;3.50;;
2225;SDS011;1119;48.288;8.726;2023-09-19T00:27:44;20.20;;;3.97;;
2225;SDS011;1119;48.288;8.726;2023-09-19T00:30:17;20.17;;;4.00;;
2225;SDS011;1119;48.288;8.726;2023-09-19T00:32:47;20.20;;;3.70;;
2225;SDS011;1119;48.288;8.726;2023-09-19T00:35:14;20.43;;;4.30;;
2225;SDS011;1119;48.288;8.726;2023-09-19T00:37:42;20.50;;;4.43;;
2225;SDS011;1119;48.288;8.726;2023-09-19T00:40:10;20.20;;;3.60;;
2225;SDS011;1119;48.288;8.726;2023-09-19T00:42:40;20.40;;;4.50;;
2225;SDS011;1119;48.288;8.726;2023-09-19T00:45:08;20.30;;;3.90;;
2225;SDS011;1119;48.288;8.726;2023-09-19T00:47:40;20.20;;;4.37;;
2225;SDS011;1119;48.288;8.726;2023-09-19T00:50:11;20.10;;;3.93;;
2225;SDS011;1119;48.288;8.726;2023-09-19T00:52:39;20.27;;;3.70;;
2225;SDS011;1119;48.288;8.726;2023-09-19T00:55:09;20.47;;;4.20;;
2225;SDS011;1119;48.288;8.726;2023-09-19T00:57:38;20.10;;;3.77;;
2225;SDS011;1119;48.288;8.726;2023-09-19T01:00:06;20.10;;;4.10;;
2225;SDS011;1119;48.288;8.726;2023-09-19T01:02:42;20.20;;;3.47;;
2225;SDS011;1119;48.288;8.726;2023-09-19T01:05:11;20.10;;;3.63;;
2225;SDS011;1119;48.288;8.726;2023-09-19T01:07:39;20.10;;;3.43;;
2225;SDS011;1119;48.288;8.726;2023-09-19T01:10:07;20.30;;;3.87;;
2225;SDS011;1119;48.288;8.726;2023-09-19T01:12:43;20.30;;;4.07;;
2225;SDS011;1119;48.288;8.726;2023-09-19T01:15:17;20.50;;;4.40;;
2225;SDS011;1119;48.288;8.726;2023-09-19T01:17:57;20.10;;;3.80;;
2225;SDS011;1119;48.288;8.726;2023-09-19T01:20:33;20.20;;;3.93;;
2225;SDS011;1119;48.288;8.726;2023-09-19T01:23:10;20.00;;;4.23;;
2225;SDS011;1119;48.288;8.726;2023-09-19T01:31:47;20.10;;;4.20;;
2225;SDS011;1119;48.288;8.726;2023-09-19T01:34:19;20.20;;;4.03;;
2225;SDS011;1119;48.288;8.726;2023-09-19T01:36:46;20.07;;;3.70;;
2225;SDS011;1119;48.288;8.726;2023-09-19T01:39:14;20.10;;;3.57;;
2225;SDS011;1119;48.288;8.726;2023-09-19T01:41:45;20.07;;;3.67;;
2225;SDS011;1119;48.288;8.726;2023-09-19T01:44:31;20.03;;;3.70;;
2225;SDS011;1119;48.288;8.726;2023-09-19T01:47:12;19.80;;;3.37;;
2225;SDS011;1119;48.288;8.726;2023-09-19T01:49:49;19.97;;;3.70;;
2225;SDS011;1119;48.288;8.726;2023-09-19T01:52:23;20.30;;;4.30;;
2225;SDS011;1119;48.288;8.726;2023-09-19T01:55:06;19.97;;;3.43;;
2225;SDS011;1119;48.288;8.726;2023-09-19T01:57:42;20.00;;;3.70;;
2225;SDS011;1119;48.288;8.726;2023-09-19T02:00:18;20.10;;;3.70;;
2225;SDS011;1119;48.288;8.726;2023-09-19T02:02:50;20.17;;;3.93;;
2225;SDS011;1119;48.288;8.726;2023-09-19T02:05:24;20.20;;;4.00;;
2225;SDS011;1119;48.288;8.726;2023-09-19T02:07:53;20.00;;;3.50;;
2225;SDS011;1119;48.288;8.726;2023-09-19T02:10:21;20.03;;;3.77;;
2225;SDS011;1119;48.288;8.726;2023-09-19T02:12:49;20.17;;;3.80;;
2225;SDS011;1119;48.288;8.726;2023-09-19T02:15:17;20.00;;;3.53;;
2225;SDS011;1119;48.288;8.726;2023-09-19T02:17:46;20.00;;;3.67;;
2225;SDS011;1119;48.288;8.726;2023-09-19T02:20:15;20.00;;;3.90;;
2225;SDS011;1119;48.288;8.726;2023-09-19T02:22:45;20.10;;;3.40;;
2225;SDS011;1119;48.288;8.726;2023-09-19T02:25:15;19.80;;;3.47;;
2225;SDS011;1119;48.288;8.726;2023-09-19T02:27:42;19.97;;;3.47;;
2225;SDS011;1119;48.288;8.726;2023-09-19T02:30:10;19.80;;;3.90;;
2225;SDS011;1119;48.288;8.726;2023-09-19T02:32:41;20.07;;;3.60;;
2225;SDS011;1119;48.288;8.726;2023-09-19T02:35:08;20.20;;;3.80;;
2225;SDS011;1119;48.288;8.726;2023-09-19T02:37:38;20.23;;;3.60;;
2225;SDS011;1119;48.288;8.726;2023-09-19T02:40:05;20.20;;;3.70;;
2225;SDS011;1119;48.288;8.726;2023-09-19T02:42:44;20.17;;;4.00;;
2225;SDS011;1119;48.288;8.726;2023-09-19T02:45:14;20.27;;;4.10;;
2225;SDS011;1119;48.288;8.726;2023-09-19T02:47:43;20.17;;;3.60;;
2225;SDS011;1119;48.288;8.726;2023-09-19T02:50:11;20.27;;;3.87;;
2225;SDS011;1119;48.288;8.726;2023-09-19T02:52:42;19.83;;;3.20;;
2225;SDS011;1119;48.288;8.726;2023-09-19T02:55:12;20.17;;;3.40;;
2225;SDS011;1119;48.288;8.726;2023-09-19T02:57:45;20.27;;;4.00;;
2225;SDS011;1119;48.288;8.726;2023-09-19T03:00:13;20.40;;;4.70;;
2225;SDS011;1119;48.288;8.726;2023-09-19T03:02:42;20.17;;;4.00;;
2225;SDS011;1119;48.288;8.726;2023-09-19T03:05:12;20.10;;;3.20;;
2225;SDS011;1119;48.288;8.726;2023-09-19T03:07:39;19.80;;;3.07;;
2225;SDS011;1119;48.288;8.726;2023-09-19T03:10:10;20.03;;;3.53;;
2225;SDS011;1119;48.288;8.726;2023-09-19T03:12:38;19.97;;;3.47;;
2225;SDS011;1119;48.288;8.726;2023-09-19T03:15:06;20.13;;;3.33;;
2225;SDS011;1119;48.288;8.726;2023-09-19T03:17:35;20.10;;;3.30;;
2225;SDS011;1119;48.288;8.726;2023-09-19T03:20:03;20.30;;;3.70;;
2225;SDS011;1119;48.288;8.726;2023-09-19T03:22:34;20.07;;;3.17;;
2225;SDS011;1119;48.288;8.726;2023-09-19T03:25:01;19.97;;;3.10;;
2225;SDS011;1119;48.288;8.726;2023-09-19T03:27:39;20.20;;;3.33;;
2225;SDS011;1119;48.288;8.726;2023-09-19T03:30:07;20.07;;;3.40;;
2225;SDS011;1119;48.288;8.726;2023-09-19T03:32:35;20.23;;;4.00;;
2225;SDS011;1119;48.288;8.726;2023-09-19T03:35:03;20.30;;;3.77;;
2225;SDS011;1119;48.288;8.726;2023-09-19T03:37:31;20.13;;;3.57;;
2225;SDS011;1119;48.288;8.726;2023-09-19T03:39:59;20.10;;;3.60;;
2225;SDS011;1119;48.288;8.726;2023-09-19T03:42:30;20.33;;;4.07;;
2225;SDS011;1119;48.288;8.726;2023-09-19T03:44:59;20.27;;;3.80;;
2225;SDS011;1119;48.288;8.726;2023-09-19T03:47:29;20.00;;;3.80;;
2225;SDS011;1119;48.288;8.726;2023-09-19T03:49:59;20.20;;;3.80;;
2225;SDS011;1119;48.288;8.726;2023-09-19T03:52:26;20.10;;;3.63;;
2225;SDS011;1119;48.288;8.726;2023-09-19T03:54:53;20.10;;;3.37;;
2225;SDS011;1119;48.288;8.726;2023-09-19T03:57:21;19.90;;;3.23;;
2225;SDS011;1119;48.288;8.726;2023-09-19T03:59:50;20.10;;;3.87;;
2225;SDS011;1119;48.288;8.726;2023-09-19T04:02:19;20.00;;;3.50;;
2225;SDS011;1119;48.288;8.726;2023-09-19T04:04:50;20.20;;;3.73;;
2225;SDS011;1119;48.288;8.726;2023-09-19T04:07:18;20.10;;;3.67;;
2225;SDS011;1119;48.288;8.726;2023-09-19T04:09:47;20.10;;;3.80;;
2225;SDS011;1119;48.288;8.726;2023-09-19T04:12:15;20.20;;;3.87;;
2225;SDS011;1119;48.288;8.726;2023-09-19T04:14:44;20.27;;;4.07;;
2225;SDS011;1119;48.288;8.726;2023-09-19T04:17:12;19.87;;;3.57;;
2225;SDS011;1119;48.288;8.726;2023-09-19T04:19:42;20.00;;;3.60;;
2225;SDS011;1119;48.288;8.726;2023-09-19T04:22:11;20.00;;;3.63;;
2225;SDS011;1119;48.288;8.726;2023-09-19T04:24:38;20.00;;;4.40;;
2225;SDS011;1119;48.288;8.726;2023-09-19T04:27:05;20.10;;;3.87;;
2225;SDS011;1119;48.288;8.726;2023-09-19T04:29:33;20.13;;;3.90;;
2225;SDS011;1119;48.288;8.726;2023-09-19T04:32:01;20.17;;;3.63;;
2225;SDS011;1119;48.288;8.726;2023-09-19T04:34:31;20.20;;;3.47;;
2225;SDS011;1119;48.288;8.726;2023-09-19T04:37:00;20.30;;;4.03;;
2225;SDS011;1119;48.288;8.726;2023-09-19T04:39:29;20.27;;;3.87;;
2225;SDS011;1119;48.288;8.726;2023-09-19T04:41:56;20.30;;;4.13;;
2225;SDS011;1119;48.288;8.726;2023-09-19T04:44:24;20.07;;;3.80;;
2225;SDS011;1119;48.288;8.726;2023-09-19T04:46:51;20.17;;;4.17;;
2225;SDS011;1119;48.288;8.726;2023-09-19T04:49:18;20.00;;;3.57;;
2225;SDS011;1119;48.288;8.726;2023-09-19T04:51:45;20.23;;;4.20;;
2225;SDS011;1119;48.288;8.726;2023-09-19T04:54:14;20.07;;;3.80;;
2225;SDS011;1119;48.288;8.726;2023-09-19T04:56:43;20.00;;;4.00;;
2225;SDS011;1119;48.288;8.726;2023-09-19T04:59:10;20.20;;;4.30;;
2225;SDS011;1119;48.288;8.726;2023-09-19T05:01:37;20.00;;;3.73;;
2225;SDS011;1119;48.288;8.726;2023-09-19T05:04:05;20.13;;;3.77;;
2225;SDS011;1119;48.288;8.726;2023-09-19T05:06:32;20.10;;;3.60;;
2225;SDS011;1119;48.288;8.726;2023-09-19T05:09:00;20.00;;;3.60;;
2225;SDS011;1119;48.288;8.726;2023-09-19T05:11:32;20.03;;;3.83;;
2225;SDS011;1119;48.288;8.726;2023-09-19T05:13:59;20.13;;;3.53;;
2225;SDS011;1119;48.288;8.726;2023-09-19T05:16:29;19.90;;;3.73;;
2225;SDS011;1119;48.288;8.726;2023-09-19T05:18:57;20.00;;;3.20;;
2225;SDS011;1119;48.288;8.726;2023-09-19T05:21:25;20.10;;;3.47;;
2225;SDS011;1119;48.288;8.726;2023-09-19T05:23:54;20.03;;;3.47;;
2225;SDS011;1119;48.288;8.726;2023-09-19T05:26:21;20.07;;;3.20;;
2225;SDS011;1119;48.288;8.726;2023-09-19T05:28:50;20.07;;;3.47;;
2225;SDS011;1119;48.288;8.726;2023-09-19T05:31:18;20.00;;;3.50;;
2225;SDS011;1119;48.288;8.726;2023-09-19T05:33:45;19.80;;;3.23;;
2225;SDS011;1119;48.288;8.726;2023-09-19T05:36:13;19.90;;;3.07;;
2225;SDS011;1119;48.288;8.726;2023-09-19T05:38:42;20.03;;;3.27;;
2225;SDS011;1119;48.288;8.726;2023-09-19T05:41:10;20.17;;;3.73;;
2225;SDS011;1119;48.288;8.726;2023-09-19T05:43:39;20.03;;;3.67;;
2225;SDS011;1119;48.288;8.726;2023-09-19T05:46:07;20.27;;;3.77;;
2225;SDS011;1119;48.288;8.726;2023-09-19T05:48:34;20.07;;;3.20;;
2225;SDS011;1119;48.288;8.726;2023-09-19T05:51:05;20.17;;;3.40;;
2225;SDS011;1119;48.288;8.726;2023-09-19T05:53:32;20.00;;;3.40;;
2225;SDS011;1119;48.288;8.726;2023-09-19T05:55:59;19.97;;;3.43;;
2225;SDS011;1119;48.288;8.726;2023-09-19T05:58:27;20.00;;;3.53;;
2225;SDS011;1119;48.288;8.726;2023-09-19T06:00:54;19.97;;;3.37;;
2225;SDS011;1119;48.288;8.726;2023-09-19T06:03:24;20.00;;;3.47;;
2225;SDS011;1119;48.288;8.726;2023-09-19T06:05:51;20.00;;;3.33;;
2225;SDS011;1119;48.288;8.726;2023-09-19T06:08:22;20.00;;;3.57;;
2225;SDS011;1119;48.288;8.726;2023-09-19T06:10:51;19.90;;;3.43;;
2225;SDS011;1119;48.288;8.726;2023-09-19T06:13:18;19.77;;;3.50;;
2225;SDS011;1119;48.288;8.726;2023-09-19T06:15:46;19.90;;;3.50;;
2225;SDS011;1119;48.288;8.726;2023-09-19T06:18:14;20.00;;;3.70;;
2225;SDS011;1119;48.288;8.726;2023-09-19T06:20:46;19.80;;;3.27;;
2225;SDS011;1119;48.288;8.726;2023-09-19T06:23:16;19.90;;;3.70;;
2225;SDS011;1119;48.288;8.726;2023-09-19T06:25:45;20.00;;;3.67;;
2225;SDS011;1119;48.288;8.726;2023-09-19T06:28:12;19.80;;;3.70;;
2225;SDS011;1119;48.288;8.726;2023-09-19T06:30:40;19.90;;;3.37;;
2225;SDS011;1119;48.288;8.726;2023-09-19T06:33:07;19.90;;;3.30;;
2225;SDS011;1119;48.288;8.726;2023-09-19T06:35:38;19.90;;;3.43;;
2225;SDS011;1119;48.288;8.726;2023-09-19T06:38:08;19.93;;;3.13;;
2225;SDS011;1119;48.288;8.726;2023-09-19T06:40:38;19.97;;;2.97;;
2225;SDS011;1119;48.288;8.726;2023-09-19T06:43:09;20.00;;;3.80;;
2225;SDS011;1119;48.288;8.726;2023-09-19T06:45:37;19.90;;;3.00;;
2225;SDS011;1119;48.288;8.726;2023-09-19T06:48:04;19.90;;;3.30;;
2225;SDS011;1119;48.288;8.726;2023-09-19T06:50:32;19.97;;;3.50;;
2225;SDS011;1119;48.288;8.726;2023-09-19T06:53:01;19.90;;;3.43;;
2225;SDS011;1119;48.288;8.726;2023-09-19T06:55:30;20.20;;;3.90;;
2225;SDS011;1119;48.288;8.726;2023-09-19T06:57:57;20.20;;;3.63;;
2225;SDS011;1119;48.288;8.726;2023-09-19T07:00:24;20.00;;;3.40;;
2225;SDS011;1119;48.288;8.726;2023-09-19T07:02:57;20.23;;;4.30;;
2225;SDS011;1119;48.288;8.726;2023-09-19T07:05:26;19.90;;;3.43;;
2225;SDS011;1119;48.288;8.726;2023-09-19T07:07:54;20.00;;;3.67;;
2225;SDS011;1119;48.288;8.726;2023-09-19T07:10:24;20.07;;;3.80;;
2225;SDS011;1119;48.288;8.726;2023-09-19T07:13:03;20.00;;;3.70;;
2225;SDS011;1119;48.288;8.726;2023-09-19T07:15:34;20.10;;;4.00;;
2225;SDS011;1119;48.288;8.726;2023-09-19T07:18:04;20.07;;;3.37;;
2225;SDS011;1119;48.288;8.726;2023-09-19T07:20:36;19.93;;;3.17;;
2225;SDS011;1119;48.288;8.726;2023-09-19T07:23:03;20.00;;;3.50;;
2225;SDS011;1119;48.288;8.726;2023-09-19T07:25:31;20.00;;;3.70;;
2225;SDS011;1119;48.288;8.726;2023-09-19T07:27:58;20.10;;;3.90;;
2225;SDS011;1119;48.288;8.726;2023-09-19T07:30:28;19.97;;;3.70;;
2225;SDS011;1119;48.288;8.726;2023-09-19T07:32:55;20.00;;;3.47;;
2225;SDS011;1119;48.288;8.726;2023-09-19T07:35:23;19.97;;;3.40;;
2225;SDS011;1119;48.288;8.726;2023-09-19T07:37:51;19.80;;;3.40;;
2225;SDS011;1119;48.288;8.726;2023-09-19T07:40:18;19.83;;;3.40;;
2225;SDS011;1119;48.288;8.726;2023-09-19T07:42:49;19.77;;;3.20;;
2225;SDS011;1119;48.288;8.726;2023-09-19T07:45:17;19.90;;;3.50;;
2225;SDS011;1119;48.288;8.726;2023-09-19T07:47:46;19.77;;;3.23;;
2225;SDS011;1119;48.288;8.726;2023-09-19T07:50:14;19.77;;;3.47;;
2225;SDS011;1119;48.288;8.726;2023-09-19T07:52:44;19.90;;;3.43;;
2225;SDS011;1119;48.288;8.726;2023-09-19T07:55:12;19.77;;;3.00;;
2225;SDS011;1119;48.288;8.726;2023-09-19T07:57:41;19.90;;;3.53;;
2225;SDS011;1119;48.288;8.726;2023-09-19T08:00:09;19.87;;;3.53;;
2225;SDS011;1119;48.288;8.726;2023-09-19T08:02:38;19.73;;;3.00;;
2225;SDS011;1119;48.288;8.726;2023-09-19T08:05:09;19.80;;;3.60;;
2225;SDS011;1119;48.288;8.726;2023-09-19T08:07:41;19.83;;;3.40;;
2225;SDS011;1119;48.288;8.726;2023-09-19T08:10:13;19.70;;;2.97;;
2225;SDS011;1119;48.288;8.726;2023-09-19T08:12:44;19.80;;;3.03;;
2225;SDS011;1119;48.288;8.726;2023-09-19T08:15:13;19.87;;;2.90;;
2225;SDS011;1119;48.288;8.726;2023-09-19T08:17:41;19.63;;;3.07;;
2225;SDS011;1119;48.288;8.726;2023-09-19T08:20:10;19.90;;;3.20;;
2225;SDS011;1119;48.288;8.726;2023-09-19T08:22:42;19.80;;;2.93;;
2225;SDS011;1119;48.288;8.726;2023-09-19T08:25:12;20.10;;;3.27;;
2225;SDS011;1119;48.288;8.726;2023-09-19T08:27:43;20.07;;;3.03;;
2225;SDS011;1119;48.288;8.726;2023-09-19T08:30:13;20.10;;;3.13;;
2225;SDS011;1119;48.288;8.726;2023-09-19T08:32:41;20.10;;;3.13;;
2225;SDS011;1119;48.288;8.726;2023-09-19T08:35:10;19.80;;;3.13;;
2225;SDS011;1119;48.288;8.726;2023-09-19T08:37:38;20.30;;;3.53;;
2225;SDS011;1119;48.288;8.726;2023-09-19T08:40:05;20.17;;;3.00;;
2225;SDS011;1119;48.288;8.726;2023-09-19T08:42:47;20.20;;;3.00;;
2225;SDS011;1119;48.288;8.726;2023-09-19T08:45:16;20.30;;;3.20;;
2225;SDS011;1119;48.288;8.726;2023-09-19T08:47:45;20.30;;;3.23;;
2225;SDS011;1119;48.288;8.726;2023-09-19T08:50:22;20.30;;;3.20;;
2225;SDS011;1119;48.288;8.726;2023-09-19T08:52:55;20.27;;;3.40;;
2225;SDS011;1119;48.288;8.726;2023-09-19T08:55:23;20.17;;;3.17;;
2225;SDS011;1119;48.288;8.726;2023-09-19T08:57:57;20.20;;;3.40;;
2225;SDS011;1119;48.288;8.726;2023-09-19T09:00:28;20.10;;;3.10;;
2225;SDS011;1119;48.288;8.726;2023-09-19T09:02:57;20.17;;;3.40;;
2225;SDS011;1119;48.288;8.726;2023-09-19T09:05:29;20.17;;;3.30;;
2225;SDS011;1119;48.288;8.726;2023-09-19T09:07:58;20.13;;;3.40;;
2225;SDS011;1119;48.288;8.726;2023-09-19T09:10:26;20.00;;;3.27;;
2225;SDS011;1119;48.288;8.726;2023-09-19T09:12:53;20.13;;;3.23;;
2225;SDS011;1119;48.288;8.726;2023-09-19T09:15:21;19.80;;;2.50;;
2225;SDS011;1119;48.288;8.726;2023-09-19T09:17:50;20.07;;;3.33;;
2225;SDS011;1119;48.288;8.726;2023-09-19T09:20:19;19.90;;;2.70;;
2225;SDS011;1119;48.288;8.726;2023-09-19T09:22:51;20.00;;;3.10;;
2225;SDS011;1119;48.288;8.726;2023-09-19T09:25:20;19.97;;;3.07;;
2225;SDS011;1119;48.288;8.726;2023-09-19T09:27:59;20.00;;;3.20;;
2225;SDS011;1119;48.288;8.726;2023-09-19T09:30:33;19.90;;;3.13;;
2225;SDS011;1119;48.288;8.726;2023-09-19T09:33:08;19.90;;;2.83;;
2225;SDS011;1119;48.288;8.726;2023-09-19T09:35:37;19.73;;;2.70;;
2225;SDS011;1119;48.288;8.726;2023-09-19T09:38:19;19.80;;;2.93;;
2225;SDS011;1119;48.288;8.726;2023-09-19T09:40:51;19.90;;;3.20;;
2225;SDS011;1119;48.288;8.726;2023-09-19T09:43:25;20.03;;;2.90;;
2225;SDS011;1119;48.288;8.726;2023-09-19T09:46:10;19.87;;;2.57;;
2225;SDS011;1119;48.288;8.726;2023-09-19T09:48:57;20.10;;;3.27;;
2225;SDS011;1119;48.288;8.726;2023-09-19T09:51:51;20.03;;;3.50;;
2225;SDS011;1119;48.288;8.726;2023-09-19T09:54:32;19.80;;;2.90;;
2225;SDS011;1119;48.288;8.726;2023-09-19T09:57:02;20.00;;;3.20;;
2225;SDS011;1119;48.288;8.726;2023-09-19T09:59:46;20.10;;;3.50;;
2225;SDS011;1119;48.288;8.726;2023-09-19T10:02:19;19.80;;;3.40;;
2225;SDS011;1119;48.288;8.726;2023-09-19T10:04:54;19.77;;;3.20;;
2225;SDS011;1119;48.288;8.726;2023-09-19T10:07:35;19.77;;;3.47;;
2225;SDS011;1119;48.288;8.726;2023-09-19T10:10:07;19.50;;;3.37;;
2225;SDS011;1119;48.288;8.726;2023-09-19T10:12:52;19.67;;;3.40;;
2225;SDS011;1119;48.288;8.726;2023-09-19T10:15:29;19.67;;;3.30;;
2225;SDS011;1119;48.288;8.726;2023-09-19T10:17:59;19.50;;;2.70;;
2225;SDS011;1119;48.288;8.726;2023-09-19T10:20:28;19.67;;;3.30;;
2225;SDS011;1119;48.288;8.726;2023-09-19T10:23:05;19.53;;;3.03;;
2225;SDS011;1119;48.288;8.726;2023-09-19T10:25:38;19.57;;;3.20;;
2225;SDS011;1119;48.288;8.726;2023-09-19T10:28:07;19.60;;;3.23;;
2225;SDS011;1119;48.288;8.726;2023-09-19T10:30:40;19.43;;;3.47;;
2225;SDS011;1119;48.288;8.726;2023-09-19T10:33:10;19.67;;;3.20;;
2225;SDS011;1119;48.288;8.726;2023-09-19T10:35:40;19.53;;;3.40;;
2225;SDS011;1119;48.288;8.726;2023-09-19T10:38:11;19.50;;;3.20;;
2225;SDS011;1119;48.288;8.726;2023-09-19T10:40:41;19.60;;;3.47;;
2225;SDS011;1119;48.288;8.726;2023-09-19T10:43:12;19.50;;;3.40;;
2225;SDS011;1119;48.288;8.726;2023-09-19T10:45:44;19.10;;;2.97;;
2225;SDS011;1119;48.288;8.726;2023-09-19T10:48:14;19.53;;;3.20;;
2225;SDS011;1119;48.288;8.726;2023-09-19T10:50:46;19.60;;;3.57;;
2225;SDS011;1119;48.288;8.726;2023-09-19T10:53:20;19.30;;;3.50;;
2225;SDS011;1119;48.288;8.726;2023-09-19T10:55:57;19.40;;;3.70;;
2225;SDS011;1119;48.288;8.726;2023-09-19T10:58:35;19.43;;;3.40;;
2225;SDS011;1119;48.288;8.726;2023-09-19T11:01:05;19.40;;;3.40;;
2225;SDS011;1119;48.288;8.726;2023-09-19T11:03:37;19.43;;;3.50;;
2225;SDS011;1119;48.288;8.726;2023-09-19T11:06:09;19.50;;;3.30;;
2225;SDS011;1119;48.288;8.726;2023-09-19T11:08:59;19.40;;;3.60;;
2225;SDS011;1119;48.288;8.726;2023-09-19T11:11:49;20.50;;;2.58;;
2225;SDS011;1119;48.288;8.726;2023-09-19T11:14:28;19.23;;;3.17;;
2225;SDS011;1119;48.288;8.726;2023-09-19T11:20:17;19.20;;;3.30;;
2225;SDS011;1119;48.288;8.726;2023-09-19T11:23:19;19.47;;;3.70;;
2225;SDS011;1119;48.288;8.726;2023-09-19T11:25:50;19.20;;;3.00;;
2225;SDS011;1119;48.288;8.726;2023-09-19T11:28:33;19.20;;;3.40;;
2225;SDS011;1119;48.288;8.726;2023-09-19T11:40:37;19.20;;;3.20;;
2225;SDS011;1119;48.288;8.726;2023-09-19T11:46:05;19.10;;;3.13;;
2225;SDS011;1119;48.288;8.726;2023-09-19T11:48:34;19.33;;;3.90;;
2225;SDS011;1119;48.288;8.726;2023-09-19T11:51:13;19.30;;;3.70;;
2225;SDS011;1119;48.288;8.726;2023-09-19T11:53:52;19.23;;;3.73;;
2225;SDS011;1119;48.288;8.726;2023-09-19T11:56:21;19.10;;;3.60;;
2225;SDS011;1119;48.288;8.726;2023-09-19T11:58:53;19.30;;;3.60;;
2225;SDS011;1119;48.288;8.726;2023-09-19T12:01:25;19.27;;;3.63;;
2225;SDS011;1119;48.288;8.726;2023-09-19T12:03:58;19.20;;;3.50;;
2225;SDS011;1119;48.288;8.726;2023-09-19T12:06:27;19.20;;;3.70;;
2225;SDS011;1119;48.288;8.726;2023-09-19T12:08:57;19.17;;;3.40;;
2225;SDS011;1119;48.288;8.726;2023-09-19T12:11:28;19.20;;;3.70;;
2225;SDS011;1119;48.288;8.726;2023-09-19T12:13:58;19.30;;;3.67;;
2225;SDS011;1119;48.288;8.726;2023-09-19T12:16:28;19.27;;;3.60;;
2225;SDS011;1119;48.288;8.726;2023-09-19T12:18:56;19.10;;;3.40;;
2225;SDS011;1119;48.288;8.726;2023-09-19T12:21:25;19.27;;;3.70;;
2225;SDS011;1119;48.288;8.726;2023-09-19T12:23:59;19.17;;;3.23;;
2225;SDS011;1119;48.288;8.726;2023-09-19T12:26:40;19.03;;;3.50;;
2225;SDS011;1119;48.288;8.726;2023-09-19T12:29:12;19.17;;;3.30;;
2225;SDS011;1119;48.288;8.726;2023-09-19T12:31:50;18.83;;;3.70;;
2225;SDS011;1119;48.288;8.726;2023-09-19T12:34:21;19.10;;;3.50;;
2225;SDS011;1119;48.288;8.726;2023-09-19T12:37:05;19.20;;;3.60;;
2225;SDS011;1119;48.288;8.726;2023-09-19T12:39:41;19.10;;;3.27;;
2225;SDS011;1119;48.288;8.726;2023-09-19T12:42:14;19.23;;;3.23;;
2225;SDS011;1119;48.288;8.726;2023-09-19T12:44:44;19.27;;;3.50;;
2225;SDS011;1119;48.288;8.726;2023-09-19T12:47:15;19.10;;;3.50;;
2225;SDS011;1119;48.288;8.726;2023-09-19T12:52:44;19.00;;;3.30;;
2225;SDS011;1119;48.288;8.726;2023-09-19T12:55:20;19.10;;;3.13;;
2225;SDS011;1119;48.288;8.726;2023-09-19T12:57:56;19.00;;;3.30;;
2225;SDS011;1119;48.288;8.726;2023-09-19T13:00:36;19.07;;;3.10;;
2225;SDS011;1119;48.288;8.726;2023-09-19T13:03:16;19.07;;;2.90;;
2225;SDS011;1119;48.288;8.726;2023-09-19T13:05:59;19.17;;;3.40;;
2225;SDS011;1119;48.288;8.726;2023-09-19T13:08:30;19.13;;;3.10;;
2225;SDS011;1119;48.288;8.726;2023-09-19T13:11:10;19.10;;;3.50;;
2225;SDS011;1119;48.288;8.726;2023-09-19T13:13:40;19.10;;;3.37;;
2225;SDS011;1119;48.288;8.726;2023-09-19T13:16:10;19.07;;;3.27;;
2225;SDS011;1119;48.288;8.726;2023-09-19T13:18:46;19.00;;;3.10;;
2225;SDS011;1119;48.288;8.726;2023-09-19T13:21:26;19.07;;;3.13;;
2225;SDS011;1119;48.288;8.726;2023-09-19T13:26:48;19.00;;;2.90;;
2225;SDS011;1119;48.288;8.726;2023-09-19T13:29:15;18.97;;;3.20;;
2225;SDS011;1119;48.288;8.726;2023-09-19T13:31:45;18.97;;;3.20;;
2225;SDS011;1119;48.288;8.726;2023-09-19T13:34:14;19.10;;;3.30;;
2225;SDS011;1119;48.288;8.726;2023-09-19T13:36:43;19.03;;;3.30;;
2225;SDS011;1119;48.288;8.726;2023-09-19T13:39:13;18.90;;;3.00;;
2225;SDS011;1119;48.288;8.726;2023-09-19T13:41:41;19.10;;;3.40;;
2225;SDS011;1119;48.288;8.726;2023-09-19T13:44:09;19.10;;;3.00;;
2225;SDS011;1119;48.288;8.726;2023-09-19T13:46:37;19.27;;;3.70;;
2225;SDS011;1119;48.288;8.726;2023-09-19T13:49:04;18.97;;;3.23;;
2225;SDS011;1119;48.288;8.726;2023-09-19T13:51:33;19.10;;;3.20;;
2225;SDS011;1119;48.288;8.726;2023-09-19T13:54:00;18.90;;;3.07;;
2225;SDS011;1119;48.288;8.726;2023-09-19T13:56:28;19.07;;;3.40;;
2225;SDS011;1119;48.288;8.726;2023-09-19T13:58:56;19.00;;;3.27;;
2225;SDS011;1119;48.288;8.726;2023-09-19T14:01:24;19.07;;;3.40;;
2225;SDS011;1119;48.288;8.726;2023-09-19T14:03:52;19.17;;;3.37;;
2225;SDS011;1119;48.288;8.726;2023-09-19T14:06:22;18.80;;;3.00;;
2225;SDS011;1119;48.288;8.726;2023-09-19T14:08:50;19.00;;;3.40;;
2225;SDS011;1119;48.288;8.726;2023-09-19T14:11:18;18.90;;;3.07;;
2225;SDS011;1119;48.288;8.726;2023-09-19T14:13:45;19.00;;;2.93;;
2225;SDS011;1119;48.288;8.726;2023-09-19T14:16:15;19.10;;;3.40;;
2225;SDS011;1119;48.288;8.726;2023-09-19T14:18:44;18.90;;;3.07;;
2225;SDS011;1119;48.288;8.726;2023-09-19T14:21:12;18.90;;;3.07;;
2225;SDS011;1119;48.288;8.726;2023-09-19T14:23:40;19.07;;;2.77;;
2225;SDS011;1119;48.288;8.726;2023-09-19T14:26:10;19.13;;;3.30;;
2225;SDS011;1119;48.288;8.726;2023-09-19T14:28:37;19.03;;;2.97;;
2225;SDS011;1119;48.288;8.726;2023-09-19T14:31:05;18.87;;;3.20;;
2225;SDS011;1119;48.288;8.726;2023-09-19T14:33:33;19.13;;;3.20;;
2225;SDS011;1119;48.288;8.726;2023-09-19T14:36:02;19.17;;;3.70;;
2225;SDS011;1119;48.288;8.726;2023-09-19T14:38:32;19.27;;;3.70;;
2225;SDS011;1119;48.288;8.726;2023-09-19T14:41:00;19.23;;;3.50;;
2225;SDS011;1119;48.288;8.726;2023-09-19T14:43:29;19.00;;;3.23;;
2225;SDS011;1119;48.288;8.726;2023-09-19T14:45:58;18.93;;;2.97;;
2225;SDS011;1119;48.288;8.726;2023-09-19T14:48:30;19.03;;;2.97;;
2225;SDS011;1119;48.288;8.726;2023-09-19T14:51:01;19.07;;;3.07;;
2225;SDS011;1119;48.288;8.726;2023-09-19T14:53:29;18.50;;;2.70;;
2225;SDS011;1119;48.288;8.726;2023-09-19T14:55:59;19.00;;;3.20;;
2225;SDS011;1119;48.288;8.726;2023-09-19T14:58:29;19.10;;;3.23;;
2225;SDS011;1119;48.288;8.726;2023-09-19T15:01:02;19.03;;;3.40;;
2225;SDS011;1119;48.288;8.726;2023-09-19T15:03:31;18.80;;;3.37;;
2225;SDS011;1119;48.288;8.726;2023-09-19T15:06:00;18.90;;;3.33;;
2225;SDS011;1119;48.288;8.726;2023-09-19T15:08:28;19.17;;;3.40;;
2225;SDS011;1119;48.288;8.726;2023-09-19T15:10:55;19.07;;;3.20;;
2225;SDS011;1119;48.288;8.726;2023-09-19T15:13:23;19.20;;;3.17;;
2225;SDS011;1119;48.288;8.726;2023-09-19T15:15:59;19.07;;;3.40;;
2225;SDS011;1119;48.288;8.726;2023-09-19T15:18:27;19.00;;;3.33;;
2225;SDS011;1119;48.288;8.726;2023-09-19T15:20:55;19.23;;;3.30;;
2225;SDS011;1119;48.288;8.726;2023-09-19T15:23:23;19.00;;;3.30;;
2225;SDS011;1119;48.288;8.726;2023-09-19T15:25:50;18.80;;;3.30;;
2225;SDS011;1119;48.288;8.726;2023-09-19T15:28:18;19.13;;;3.60;;
2225;SDS011;1119;48.288;8.726;2023-09-19T15:30:48;19.40;;;3.90;;
2225;SDS011;1119;48.288;8.726;2023-09-19T15:33:17;19.23;;;3.40;;
2225;SDS011;1119;48.288;8.726;2023-09-19T15:35:44;19.17;;;3.13;;
2225;SDS011;1119;48.288;8.726;2023-09-19T15:38:11;19.20;;;3.30;;
2225;SDS011;1119;48.288;8.726;2023-09-19T15:40:45;18.87;;;3.30;;
2225;SDS011;1119;48.288;8.726;2023-09-19T15:43:13;19.03;;;2.80;;
2225;SDS011;1119;48.288;8.726;2023-09-19T15:45:42;19.20;;;3.13;;
2225;SDS011;1119;48.288;8.726;2023-09-19T15:48:09;19.10;;;3.20;;